createdAt,value
2018-02-24T00:00:17.085Z,48.9
2018-02-24T00:01:17.132Z,48.9
2018-02-24T00:02:16.437Z,48.6
2018-02-24T00:03:16.730Z,48.5
2018-02-24T00:04:17.036Z,48.7
2018-02-24T00:05:16.390Z,48.8
2018-02-24T00:06:16.688Z,48.9
2018-02-24T00:07:16.973Z,48.9
2018-02-24T00:08:17.282Z,49.0
2018-02-24T00:09:16.594Z,49.2
2018-02-24T00:10:16.888Z,49.0
2018-02-24T00:11:16.934Z,49.0
2018-02-24T00:12:17.227Z,49.0
2018-02-24T00:13:16.542Z,49.0
2018-02-24T00:14:16.915Z,49.1
2018-02-24T00:15:17.218Z,49.0
2018-02-24T00:16:16.520Z,49.0
2018-02-24T00:17:16.821Z,49.1
2018-02-24T00:18:17.137Z,49.1
2018-02-24T00:19:16.444Z,49.1
2018-02-24T00:20:16.748Z,49.1
2018-02-24T00:21:16.783Z,49.2
2018-02-24T00:22:17.107Z,49.1
2018-02-24T00:23:16.419Z,49.1
2018-02-24T00:24:16.727Z,49.2
2018-02-24T00:25:17.031Z,49.2
2018-02-24T00:26:16.329Z,49.1
2018-02-24T00:27:16.646Z,49.3
2018-02-24T00:28:16.930Z,49.3
2018-02-24T00:29:17.538Z,49.4
2018-02-24T00:30:16.843Z,49.4
2018-02-24T00:31:16.906Z,49.2
2018-02-24T00:32:17.231Z,49.0
2018-02-24T00:33:16.540Z,49.7
2018-02-24T00:34:16.859Z,49.8
2018-02-24T00:35:17.171Z,49.9
2018-02-24T00:36:16.454Z,49.5
2018-02-24T00:37:16.753Z,50.1
2018-02-24T00:38:17.037Z,50.1
2018-02-24T00:39:16.329Z,50.5
2018-02-24T00:40:16.634Z,50.5
2018-02-24T00:41:16.673Z,50.2
2018-02-24T00:42:17.008Z,50.3
2018-02-24T00:43:16.314Z,50.2
2018-02-24T00:44:16.644Z,50.3
2018-02-24T00:45:16.953Z,50.0
2018-02-24T00:46:17.283Z,50.0
2018-02-24T00:47:16.601Z,50.1
2018-02-24T00:48:16.907Z,50.0
2018-02-24T00:49:17.470Z,50.6
2018-02-24T00:50:16.791Z,50.7
2018-02-24T00:51:16.810Z,50.6
2018-02-24T00:52:17.096Z,50.8
2018-02-24T00:53:16.389Z,50.8
2018-02-24T00:54:16.705Z,50.5
2018-02-24T00:55:17.005Z,50.7
2018-02-24T00:56:16.292Z,50.8
2018-02-24T00:57:16.586Z,50.7
2018-02-24T00:58:16.895Z,50.6
2018-02-24T00:59:17.499Z,50.6
2018-02-24T01:00:16.802Z,50.6
2018-02-24T01:01:16.853Z,50.7
2018-02-24T01:02:17.142Z,50.6
2018-02-24T01:03:16.443Z,50.5
2018-02-24T01:04:16.776Z,50.4
2018-02-24T01:05:17.073Z,50.5
2018-02-24T01:06:16.378Z,50.5
2018-02-24T01:07:16.676Z,50.4
2018-02-24T01:08:16.973Z,50.4
2018-02-24T01:09:17.297Z,50.5
2018-02-24T01:10:16.606Z,50.5
2018-02-24T01:11:16.643Z,50.6
2018-02-24T01:12:16.951Z,50.6
2018-02-24T01:13:17.255Z,50.6
2018-02-24T01:14:16.561Z,50.6
2018-02-24T01:15:16.859Z,50.8
2018-02-24T01:16:17.166Z,50.8
2018-02-24T01:17:16.470Z,50.9
2018-02-24T01:18:16.758Z,51.0
2018-02-24T01:19:17.064Z,50.9
2018-02-24T01:20:16.376Z,50.8
2018-02-24T01:21:16.415Z,50.6
2018-02-24T01:22:16.707Z,50.6
2018-02-24T01:23:17.016Z,50.8
2018-02-24T01:24:16.306Z,50.8
2018-02-24T01:25:16.612Z,50.9
2018-02-24T01:26:16.914Z,50.7
2018-02-24T01:27:17.221Z,50.7
2018-02-24T01:28:16.529Z,50.8
2018-02-24T01:29:16.825Z,50.9
2018-02-24T01:30:17.133Z,51.0
2018-02-24T01:31:17.175Z,51.0
2018-02-24T01:32:16.486Z,50.8
2018-02-24T01:33:16.853Z,50.6
2018-02-24T01:34:17.165Z,50.6
2018-02-24T01:35:16.469Z,51.0
2018-02-24T01:36:16.762Z,51.0
2018-02-24T01:37:17.058Z,51.2
2018-02-24T01:38:16.353Z,51.0
2018-02-24T01:39:16.651Z,51.0
2018-02-24T01:40:16.952Z,51.1
2018-02-24T01:41:16.985Z,51.0
2018-02-24T01:42:17.277Z,51.1
2018-02-24T01:43:16.572Z,51.1
2018-02-24T01:44:16.892Z,51.0
2018-02-24T01:45:17.196Z,51.4
2018-02-24T01:46:16.484Z,51.1
2018-02-24T01:47:16.778Z,52.0
2018-02-24T01:48:17.074Z,51.7
2018-02-24T01:49:16.393Z,51.6
2018-02-24T01:50:16.705Z,51.6
2018-02-24T01:51:16.753Z,51.5
2018-02-24T01:52:17.053Z,51.5
2018-02-24T01:53:16.352Z,51.5
2018-02-24T01:54:16.650Z,51.5
2018-02-24T01:55:16.963Z,51.5
2018-02-24T01:56:17.558Z,51.5
2018-02-24T01:57:16.854Z,51.5
2018-02-24T01:58:17.198Z,51.6
2018-02-24T01:59:16.496Z,51.5
2018-02-24T02:00:16.812Z,51.5
2018-02-24T02:01:16.817Z,51.6
2018-02-24T02:02:17.104Z,52.0
2018-02-24T02:03:16.409Z,51.6
2018-02-24T02:04:16.697Z,52.0
2018-02-24T02:05:17.019Z,51.5
2018-02-24T02:06:16.344Z,51.7
2018-02-24T02:07:16.633Z,51.7
2018-02-24T02:08:16.936Z,51.7
2018-02-24T02:09:17.241Z,51.8
2018-02-24T02:10:16.546Z,51.8
2018-02-24T02:11:16.609Z,51.6
2018-02-24T02:12:16.917Z,51.7
2018-02-24T02:13:17.220Z,51.8
2018-02-24T02:14:16.517Z,51.9
2018-02-24T02:15:16.825Z,51.7
2018-02-24T02:16:17.149Z,51.6
2018-02-24T02:17:16.458Z,51.9
2018-02-24T02:18:16.765Z,51.9
2018-02-24T02:19:17.066Z,51.9
2018-02-24T02:20:16.372Z,51.8
2018-02-24T02:21:16.410Z,51.8
2018-02-24T02:22:16.773Z,51.9
2018-02-24T02:23:17.067Z,52.0
2018-02-24T02:24:16.366Z,51.9
2018-02-24T02:25:16.655Z,52.0
2018-02-24T02:26:16.954Z,52.0
2018-02-24T02:27:17.255Z,52.0
2018-02-24T02:28:16.561Z,52.1
2018-02-24T02:29:16.859Z,52.0
2018-02-24T02:30:17.173Z,51.9
2018-02-24T02:31:17.217Z,52.0
2018-02-24T02:32:16.521Z,52.1
2018-02-24T02:33:16.827Z,52.2
2018-02-24T02:34:17.131Z,52.2
2018-02-24T02:35:16.434Z,52.2
2018-02-24T02:36:16.714Z,52.3
2018-02-24T02:37:17.027Z,52.3
2018-02-24T02:38:16.313Z,52.4
2018-02-24T02:39:16.629Z,52.5
2018-02-24T02:40:16.940Z,52.2
2018-02-24T02:41:16.978Z,52.4
2018-02-24T02:42:17.290Z,52.4
2018-02-24T02:43:16.607Z,52.5
2018-02-24T02:44:16.918Z,52.6
2018-02-24T02:45:17.258Z,52.6
2018-02-24T02:46:16.574Z,52.6
2018-02-24T02:47:16.883Z,52.6
2018-02-24T02:48:17.181Z,53.0
2018-02-24T02:49:16.490Z,53.1
2018-02-24T02:50:16.792Z,53.1
2018-02-24T02:51:16.848Z,53.7
2018-02-24T02:52:17.146Z,53.1
2018-02-24T02:53:16.444Z,53.0
2018-02-24T02:54:16.750Z,53.0
2018-02-24T02:55:17.072Z,53.1
2018-02-24T02:56:16.365Z,53.1
2018-02-24T02:57:16.663Z,53.2
2018-02-24T02:58:16.969Z,53.4
2018-02-24T02:59:17.266Z,53.1
2018-02-24T03:00:16.576Z,53.1
2018-02-24T03:01:16.617Z,53.1
2018-02-24T03:02:16.979Z,53.1
2018-02-24T03:03:17.277Z,53.1
2018-02-24T03:04:16.591Z,53.1
2018-02-24T03:05:16.895Z,53.4
2018-02-24T03:06:17.194Z,53.0
2018-02-24T03:07:16.538Z,53.0
2018-02-24T03:08:16.830Z,53.2
2018-02-24T03:09:17.121Z,53.1
2018-02-24T03:10:16.439Z,53.1
2018-02-24T03:11:16.479Z,53.4
2018-02-24T03:12:16.775Z,53.2
2018-02-24T03:13:17.403Z,53.2
2018-02-24T03:14:16.710Z,53.7
2018-02-24T03:15:17.018Z,53.8
2018-02-24T03:16:16.322Z,53.8
2018-02-24T03:17:16.807Z,53.6
2018-02-24T03:18:17.098Z,53.7
2018-02-24T03:19:16.387Z,54.0
2018-02-24T03:20:16.677Z,53.9
2018-02-24T03:21:16.726Z,53.9
2018-02-24T03:22:17.016Z,53.9
2018-02-24T03:23:16.326Z,54.0
2018-02-24T03:24:16.624Z,54.0
2018-02-24T03:25:16.936Z,54.1
2018-02-24T03:26:17.508Z,53.6
2018-02-24T03:27:16.811Z,53.5
2018-02-24T03:28:17.108Z,53.5
2018-02-24T03:29:16.640Z,53.5
2018-02-24T03:30:16.954Z,53.5
2018-02-24T03:31:17.030Z,53.6
2018-02-24T03:32:16.352Z,53.6
2018-02-24T03:33:16.676Z,54.0
2018-02-24T03:34:16.975Z,54.1
2018-02-24T03:35:17.264Z,54.2
2018-02-24T03:36:16.592Z,54.3
2018-02-24T03:37:16.893Z,54.1
2018-02-24T03:38:17.190Z,54.0
2018-02-24T03:39:16.494Z,54.0
2018-02-24T03:40:16.796Z,54.2
2018-02-24T03:41:16.844Z,54.2
2018-02-24T03:42:17.164Z,54.1
2018-02-24T03:43:16.468Z,54.4
2018-02-24T03:44:16.786Z,53.9
2018-02-24T03:45:17.120Z,54.1
2018-02-24T03:46:16.431Z,54.0
2018-02-24T03:47:16.736Z,53.8
2018-02-24T03:48:17.041Z,54.1
2018-02-24T03:49:16.330Z,54.0
2018-02-24T03:50:16.648Z,54.0
2018-02-24T03:51:16.688Z,54.2
2018-02-24T03:52:16.989Z,54.3
2018-02-24T03:53:16.354Z,54.4
2018-02-24T03:54:16.671Z,54.2
2018-02-24T03:55:17.110Z,54.0
2018-02-24T03:56:16.425Z,53.9
2018-02-24T03:57:16.748Z,54.0
2018-02-24T03:58:17.055Z,54.1
2018-02-24T03:59:16.361Z,54.1
2018-02-24T04:00:16.680Z,54.0
2018-02-24T04:01:16.731Z,54.0
2018-02-24T04:02:17.026Z,54.0
2018-02-24T04:03:16.318Z,54.2
2018-02-24T04:04:16.631Z,54.4
2018-02-24T04:05:16.947Z,54.2
2018-02-24T04:06:17.255Z,54.2
2018-02-24T04:07:16.563Z,54.4
2018-02-24T04:08:16.864Z,54.0
2018-02-24T04:09:17.174Z,54.1
2018-02-24T04:10:16.485Z,54.2
2018-02-24T04:11:16.525Z,54.2
2018-02-24T04:12:16.833Z,54.3
2018-02-24T04:13:17.132Z,54.3
2018-02-24T04:14:16.445Z,54.1
2018-02-24T04:15:16.755Z,54.0
2018-02-24T04:16:17.048Z,54.1
2018-02-24T04:17:16.341Z,54.2
2018-02-24T04:18:16.626Z,54.0
2018-02-24T04:19:16.939Z,54.2
2018-02-24T04:20:17.260Z,54.9
2018-02-24T04:21:16.309Z,54.8
2018-02-24T04:22:16.605Z,54.9
2018-02-24T04:23:16.908Z,54.8
2018-02-24T04:24:17.217Z,54.9
2018-02-24T04:25:16.528Z,54.9
2018-02-24T04:26:16.826Z,55.0
2018-02-24T04:27:17.130Z,54.6
2018-02-24T04:28:16.446Z,54.8
2018-02-24T04:29:16.755Z,54.7
2018-02-24T04:30:17.068Z,54.9
2018-02-24T04:31:17.104Z,55.2
2018-02-24T04:32:16.410Z,55.1
2018-02-24T04:33:16.706Z,55.1
2018-02-24T04:34:17.002Z,55.2
2018-02-24T04:35:16.317Z,55.1
2018-02-24T04:36:16.618Z,55.1
2018-02-24T04:37:16.916Z,55.3
2018-02-24T04:38:17.224Z,55.1
2018-02-24T04:39:16.530Z,55.1
2018-02-24T04:40:16.855Z,55.1
2018-02-24T04:41:16.869Z,55.4
2018-02-24T04:42:17.155Z,55.5
2018-02-24T04:43:16.447Z,55.8
2018-02-24T04:44:16.754Z,55.6
2018-02-24T04:45:17.067Z,55.6
2018-02-24T04:46:16.358Z,55.0
2018-02-24T04:47:16.653Z,55.3
2018-02-24T04:48:16.968Z,55.2
2018-02-24T04:49:17.284Z,55.4
2018-02-24T04:50:16.590Z,55.4
2018-02-24T04:51:16.633Z,55.5
2018-02-24T04:52:16.934Z,55.5
2018-02-24T04:53:17.266Z,55.6
2018-02-24T04:54:16.586Z,55.7
2018-02-24T04:55:16.904Z,55.5
2018-02-24T04:56:17.207Z,55.5
2018-02-24T04:57:16.497Z,55.1
2018-02-24T04:58:16.792Z,55.1
2018-02-24T04:59:17.083Z,55.1
2018-02-24T05:00:16.390Z,54.4
2018-02-24T05:01:16.447Z,55.5
2018-02-24T05:02:16.754Z,55.5
2018-02-24T05:03:17.055Z,55.5
2018-02-24T05:04:16.363Z,55.6
2018-02-24T05:05:16.652Z,55.9
2018-02-24T05:06:16.959Z,55.3
2018-02-24T05:07:17.251Z,55.0
2018-02-24T05:08:16.556Z,55.3
2018-02-24T05:09:16.874Z,55.1
2018-02-24T05:10:17.196Z,55.2
2018-02-24T05:11:17.218Z,55.2
2018-02-24T05:12:16.528Z,55.2
2018-02-24T05:13:16.823Z,55.3
2018-02-24T05:14:17.128Z,55.1
2018-02-24T05:15:16.434Z,55.2
2018-02-24T05:16:16.725Z,55.3
2018-02-24T05:17:17.016Z,55.4
2018-02-24T05:18:16.305Z,55.0
2018-02-24T05:19:16.617Z,55.2
2018-02-24T05:20:16.926Z,55.2
2018-02-24T05:21:16.965Z,55.3
2018-02-24T05:22:17.248Z,55.5
2018-02-24T05:23:16.544Z,55.5
2018-02-24T05:24:16.844Z,55.5
2018-02-24T05:25:17.151Z,56.0
2018-02-24T05:26:16.464Z,55.9
2018-02-24T05:27:16.751Z,55.6
2018-02-24T05:28:17.055Z,55.7
2018-02-24T05:29:16.363Z,55.6
2018-02-24T05:30:16.682Z,56.1
2018-02-24T05:31:16.718Z,56.0
2018-02-24T05:32:17.031Z,56.1
2018-02-24T05:33:16.324Z,55.4
2018-02-24T05:34:16.634Z,55.4
2018-02-24T05:35:16.946Z,55.4
2018-02-24T05:36:17.269Z,55.2
2018-02-24T05:37:16.594Z,55.4
2018-02-24T05:38:16.896Z,55.0
2018-02-24T05:39:17.212Z,55.0
2018-02-24T05:40:16.509Z,55.0
2018-02-24T05:41:16.578Z,55.1
2018-02-24T05:42:16.879Z,55.3
2018-02-24T05:43:17.180Z,55.4
2018-02-24T05:44:16.493Z,55.2
2018-02-24T05:45:16.809Z,55.3
2018-02-24T05:46:17.096Z,55.3
2018-02-24T05:47:16.400Z,55.1
2018-02-24T05:48:16.694Z,55.4
2018-02-24T05:49:17.018Z,55.4
2018-02-24T05:50:16.328Z,55.4
2018-02-24T05:51:16.360Z,55.2
2018-02-24T05:52:16.660Z,55.3
2018-02-24T05:53:16.959Z,55.2
2018-02-24T05:54:17.269Z,55.2
2018-02-24T05:55:16.575Z,55.2
2018-02-24T05:56:16.866Z,55.3
2018-02-24T05:57:17.160Z,55.4
2018-02-24T05:58:16.460Z,55.3
2018-02-24T05:59:16.751Z,55.2
2018-02-24T06:00:17.064Z,55.2
2018-02-24T06:01:17.100Z,55.4
2018-02-24T06:02:16.397Z,55.4
2018-02-24T06:03:16.704Z,55.5
2018-02-24T06:04:17.003Z,55.6
2018-02-24T06:05:16.295Z,55.8
2018-02-24T06:06:16.614Z,55.6
2018-02-24T06:07:16.913Z,55.6
2018-02-24T06:08:17.217Z,55.5
2018-02-24T06:09:16.524Z,55.0
2018-02-24T06:10:16.839Z,55.0
2018-02-24T06:11:16.898Z,55.1
2018-02-24T06:12:17.196Z,55.8
2018-02-24T06:13:16.493Z,56.0
2018-02-24T06:14:16.783Z,56.0
2018-02-24T06:15:17.075Z,56.2
2018-02-24T06:16:16.368Z,56.4
2018-02-24T06:17:16.667Z,56.5
2018-02-24T06:18:16.965Z,56.0
2018-02-24T06:19:17.301Z,55.8
2018-02-24T06:20:16.596Z,55.9
2018-02-24T06:21:16.668Z,55.8
2018-02-24T06:22:16.968Z,55.6
2018-02-24T06:23:17.267Z,55.6
2018-02-24T06:24:16.566Z,55.4
2018-02-24T06:25:16.871Z,55.3
2018-02-24T06:26:17.174Z,55.4
2018-02-24T06:27:16.477Z,55.2
2018-02-24T06:28:16.772Z,55.6
2018-02-24T06:29:17.091Z,55.8
2018-02-24T06:30:16.408Z,55.9
2018-02-24T06:31:16.462Z,56.0
2018-02-24T06:32:16.746Z,55.8
2018-02-24T06:33:17.052Z,56.3
2018-02-24T06:34:16.350Z,56.2
2018-02-24T06:35:16.662Z,56.0
2018-02-24T06:36:16.987Z,55.6
2018-02-24T06:37:16.280Z,55.6
2018-02-24T06:38:16.565Z,56.2
2018-02-24T06:39:16.874Z,56.4
2018-02-24T06:40:17.169Z,56.4
2018-02-24T06:41:17.211Z,56.0
2018-02-24T06:42:16.510Z,56.1
2018-02-24T06:43:16.807Z,56.2
2018-02-24T06:44:17.123Z,56.3
2018-02-24T06:45:16.440Z,56.2
2018-02-24T06:46:16.751Z,56.4
2018-02-24T06:47:17.062Z,55.8
2018-02-24T06:48:16.364Z,55.8
2018-02-24T06:49:16.665Z,55.7
2018-02-24T06:50:16.990Z,56.0
2018-02-24T06:51:17.011Z,55.9
2018-02-24T06:52:16.309Z,55.7
2018-02-24T06:53:16.608Z,55.6
2018-02-24T06:54:16.918Z,55.5
2018-02-24T06:55:17.222Z,54.8
2018-02-24T06:56:16.524Z,55.0
2018-02-24T06:57:16.831Z,54.5
2018-02-24T06:58:17.126Z,54.5
2018-02-24T06:59:16.424Z,54.5
2018-02-24T07:00:16.738Z,54.6
2018-02-24T07:01:16.804Z,54.6
2018-02-24T07:02:17.098Z,54.7
2018-02-24T07:03:16.422Z,54.4
2018-02-24T07:04:16.737Z,54.2
2018-02-24T07:05:17.048Z,54.0
2018-02-24T07:06:16.359Z,53.9
2018-02-24T07:07:16.660Z,53.8
2018-02-24T07:08:16.980Z,53.1
2018-02-24T07:09:17.274Z,53.2
2018-02-24T07:10:16.583Z,53.1
2018-02-24T07:11:16.657Z,52.8
2018-02-24T07:12:16.968Z,52.6
2018-02-24T07:13:17.282Z,52.3
2018-02-24T07:14:16.593Z,51.6
2018-02-24T07:15:16.892Z,51.2
2018-02-24T07:16:17.216Z,51.1
2018-02-24T07:17:16.520Z,50.9
2018-02-24T07:18:16.838Z,51.0
2018-02-24T07:19:17.153Z,50.8
2018-02-24T07:20:16.474Z,50.6
2018-02-24T07:21:16.520Z,50.5
2018-02-24T07:22:16.816Z,49.8
2018-02-24T07:23:17.106Z,49.5
2018-02-24T07:24:16.409Z,49.1
2018-02-24T07:25:16.723Z,48.8
2018-02-24T07:26:17.016Z,48.2
2018-02-24T07:27:16.312Z,48.8
2018-02-24T07:28:16.617Z,48.4
2018-02-24T07:29:16.914Z,48.4
2018-02-24T07:30:17.212Z,47.9
2018-02-24T07:31:17.264Z,47.8
2018-02-24T07:32:16.571Z,48.0
2018-02-24T07:33:16.865Z,48.2
2018-02-24T07:34:17.174Z,47.9
2018-02-24T07:35:16.486Z,47.5
2018-02-24T07:36:16.794Z,47.0
2018-02-24T07:37:17.286Z,46.8
2018-02-24T07:38:16.609Z,46.6
2018-02-24T07:39:16.919Z,46.0
2018-02-24T07:40:17.229Z,46.0
2018-02-24T07:41:17.289Z,46.0
2018-02-24T07:42:16.600Z,46.0
2018-02-24T07:43:16.925Z,45.1
2018-02-24T07:44:17.219Z,45.0
2018-02-24T07:45:16.514Z,44.5
2018-02-24T07:46:16.831Z,44.5
2018-02-24T07:47:17.132Z,45.1
2018-02-24T07:48:16.443Z,44.6
2018-02-24T07:49:16.745Z,44.1
2018-02-24T07:50:17.048Z,43.8
2018-02-24T07:51:17.081Z,43.5
2018-02-24T07:52:16.395Z,43.8
2018-02-24T07:53:16.692Z,43.5
2018-02-24T07:54:17.017Z,42.9
2018-02-24T07:55:16.307Z,42.1
2018-02-24T07:56:16.600Z,42.7
2018-02-24T07:57:16.895Z,42.5
2018-02-24T07:58:17.210Z,41.9
2018-02-24T07:59:16.507Z,41.8
2018-02-24T08:00:16.815Z,42.0
2018-02-24T08:01:16.853Z,41.9
2018-02-24T08:02:17.166Z,41.3
2018-02-24T08:03:16.465Z,41.8
2018-02-24T08:04:16.770Z,41.8
2018-02-24T08:05:17.081Z,41.5
2018-02-24T08:06:16.379Z,40.9
2018-02-24T08:07:16.686Z,41.3
2018-02-24T08:08:16.979Z,41.1
2018-02-24T08:09:17.275Z,40.0
2018-02-24T08:10:16.590Z,39.8
2018-02-24T08:11:16.605Z,39.6
2018-02-24T08:12:16.889Z,39.3
2018-02-24T08:13:17.209Z,39.5
2018-02-24T08:14:16.510Z,39.5
2018-02-24T08:15:16.826Z,39.0
2018-02-24T08:16:17.135Z,38.8
2018-02-24T08:17:16.491Z,38.5
2018-02-24T08:18:16.802Z,38.0
2018-02-24T08:19:17.110Z,37.8
2018-02-24T08:20:16.411Z,38.0
2018-02-24T08:21:16.469Z,37.4
2018-02-24T08:22:16.782Z,36.9
2018-02-24T08:23:17.081Z,36.6
2018-02-24T08:24:16.384Z,36.4
2018-02-24T08:25:16.697Z,36.6
2018-02-24T08:26:17.014Z,36.0
2018-02-24T08:27:16.326Z,35.6
2018-02-24T08:28:16.623Z,35.3
2018-02-24T08:29:16.944Z,34.9
2018-02-24T08:30:17.250Z,33.6
2018-02-24T08:31:16.293Z,35.1
2018-02-24T08:32:16.591Z,35.0
2018-02-24T08:33:16.893Z,34.0
2018-02-24T08:34:17.192Z,33.5
2018-02-24T08:35:16.482Z,33.7
2018-02-24T08:36:16.784Z,33.9
2018-02-24T08:37:17.072Z,33.1
2018-02-24T08:38:16.398Z,32.4
2018-02-24T08:39:16.700Z,32.2
2018-02-24T08:40:17.021Z,32.5
2018-02-24T08:41:17.057Z,32.2
2018-02-24T08:42:16.355Z,32.5
2018-02-24T08:43:16.651Z,32.1
2018-02-24T08:44:16.940Z,31.7
2018-02-24T08:45:17.230Z,32.2
2018-02-24T08:46:16.511Z,32.2
2018-02-24T08:47:16.821Z,32.7
2018-02-24T08:48:17.185Z,31.9
2018-02-24T08:49:16.487Z,32.3
2018-02-24T08:50:16.788Z,31.6
2018-02-24T08:51:16.833Z,32.4
2018-02-24T08:52:17.129Z,31.9
2018-02-24T08:53:16.421Z,32.5
2018-02-24T08:54:16.735Z,32.1
2018-02-24T08:55:17.048Z,31.8
2018-02-24T08:56:16.356Z,30.4
2018-02-24T08:57:16.653Z,29.9
2018-02-24T08:58:16.960Z,30.1
2018-02-24T08:59:17.288Z,31.1
2018-02-24T09:00:16.622Z,30.6
2018-02-24T09:01:16.648Z,30.5
2018-02-24T09:02:16.945Z,32.6
2018-02-24T09:03:17.237Z,32.0
2018-02-24T09:04:16.533Z,32.4
2018-02-24T09:05:16.853Z,31.0
2018-02-24T09:06:17.157Z,30.4
2018-02-24T09:07:16.459Z,31.4
2018-02-24T09:08:16.758Z,31.8
2018-02-24T09:09:17.056Z,32.4
2018-02-24T09:10:16.383Z,32.1
2018-02-24T09:11:16.402Z,31.6
2018-02-24T09:12:16.703Z,31.6
2018-02-24T09:13:17.000Z,31.8
2018-02-24T09:14:16.288Z,32.1
2018-02-24T09:15:16.578Z,31.6
2018-02-24T09:16:16.884Z,31.9
2018-02-24T09:17:17.245Z,32.5
2018-02-24T09:18:16.549Z,31.4
2018-02-24T09:19:16.838Z,31.1
2018-02-24T09:20:17.138Z,31.2
2018-02-24T09:21:17.174Z,31.9
2018-02-24T09:22:16.478Z,32.2
2018-02-24T09:23:16.781Z,31.4
2018-02-24T09:24:17.073Z,31.4
2018-02-24T09:25:16.436Z,31.2
2018-02-24T09:26:16.760Z,32.2
2018-02-24T09:27:17.047Z,31.2
2018-02-24T09:28:16.340Z,31.9
2018-02-24T09:29:16.641Z,32.2
2018-02-24T09:30:16.949Z,31.4
2018-02-24T09:31:16.999Z,31.6
2018-02-24T09:32:16.305Z,31.9
2018-02-24T09:33:16.604Z,31.8
2018-02-24T09:34:16.931Z,32.5
2018-02-24T09:35:17.244Z,32.2
2018-02-24T09:36:16.544Z,31.9
2018-02-24T09:37:16.844Z,31.7
2018-02-24T09:38:17.130Z,31.6
2018-02-24T09:39:16.429Z,31.3
2018-02-24T09:40:16.733Z,30.8
2018-02-24T09:41:16.801Z,30.7
2018-02-24T09:42:17.096Z,30.5
2018-02-24T09:43:16.406Z,30.1
2018-02-24T09:44:16.717Z,30.1
2018-02-24T09:45:17.009Z,29.6
2018-02-24T09:46:16.323Z,29.6
2018-02-24T09:47:16.689Z,30.1
2018-02-24T09:48:16.987Z,29.9
2018-02-24T09:49:16.293Z,30.7
2018-02-24T09:50:16.615Z,30.2
2018-02-24T09:51:16.655Z,30.8
2018-02-24T09:52:16.952Z,29.6
2018-02-24T09:53:17.321Z,29.9
2018-02-24T09:54:16.661Z,30.6
2018-02-24T09:55:16.981Z,29.4
2018-02-24T09:56:17.294Z,29.5
2018-02-24T09:57:16.602Z,29.6
2018-02-24T09:58:16.894Z,29.3
2018-02-24T09:59:17.206Z,29.8
2018-02-24T10:00:16.564Z,30.1
2018-02-24T10:01:16.573Z,30.4
2018-02-24T10:02:16.883Z,30.9
2018-02-24T10:03:17.197Z,29.9
2018-02-24T10:04:16.513Z,29.2
2018-02-24T10:05:16.814Z,29.6
2018-02-24T10:06:17.112Z,30.4
2018-02-24T10:07:16.420Z,29.9
2018-02-24T10:08:16.727Z,30.4
2018-02-24T10:09:17.023Z,31.2
2018-02-24T10:10:16.313Z,30.4
2018-02-24T10:11:16.367Z,30.0
2018-02-24T10:12:16.692Z,30.1
2018-02-24T10:13:17.000Z,30.6
2018-02-24T10:14:16.307Z,30.4
2018-02-24T10:15:16.602Z,30.4
2018-02-24T10:16:16.905Z,29.9
2018-02-24T10:17:17.196Z,30.8
2018-02-24T10:18:16.508Z,30.2
2018-02-24T10:19:16.817Z,29.4
2018-02-24T10:20:17.125Z,29.8
2018-02-24T10:21:17.182Z,29.7
2018-02-24T10:22:16.479Z,30.4
2018-02-24T10:23:16.782Z,30.4
2018-02-24T10:24:17.121Z,29.4
2018-02-24T10:25:16.429Z,29.1
2018-02-24T10:26:16.724Z,29.9
2018-02-24T10:27:17.026Z,30.1
2018-02-24T10:28:16.323Z,29.9
2018-02-24T10:29:16.676Z,29.6
2018-02-24T10:30:16.997Z,29.3
2018-02-24T10:31:17.026Z,29.8
2018-02-24T10:32:16.310Z,30.2
2018-02-24T10:33:16.605Z,30.2
2018-02-24T10:34:16.905Z,30.3
2018-02-24T10:35:17.599Z,30.0
2018-02-24T10:36:16.893Z,29.6
2018-02-24T10:37:17.192Z,29.1
2018-02-24T10:38:16.506Z,29.6
2018-02-24T10:39:16.814Z,30.1
2018-02-24T10:40:17.105Z,30.0
2018-02-24T10:41:17.166Z,29.4
2018-02-24T10:42:16.466Z,28.8
2018-02-24T10:43:16.768Z,28.9
2018-02-24T10:44:17.068Z,29.8
2018-02-24T10:45:16.359Z,30.1
2018-02-24T10:46:16.639Z,29.5
2018-02-24T10:47:16.930Z,29.1
2018-02-24T10:48:17.252Z,29.1
2018-02-24T10:49:16.546Z,28.4
2018-02-24T10:50:16.855Z,28.6
2018-02-24T10:51:16.881Z,29.8
2018-02-24T10:52:17.182Z,28.9
2018-02-24T10:53:16.489Z,28.9
2018-02-24T10:54:16.800Z,28.9
2018-02-24T10:55:17.130Z,29.6
2018-02-24T10:56:16.449Z,28.8
2018-02-24T10:57:16.766Z,27.8
2018-02-24T10:58:17.082Z,29.2
2018-02-24T10:59:16.383Z,28.9
2018-02-24T11:00:16.680Z,29.1
2018-02-24T11:01:16.735Z,30.1
2018-02-24T11:02:17.035Z,29.1
2018-02-24T11:03:16.343Z,29.1
2018-02-24T11:04:16.641Z,28.9
2018-02-24T11:05:16.927Z,28.4
2018-02-24T11:06:17.227Z,28.6
2018-02-24T11:07:16.521Z,28.8
2018-02-24T11:08:16.820Z,28.5
2018-02-24T11:09:17.106Z,28.2
2018-02-24T11:10:16.405Z,28.9
2018-02-24T11:11:16.471Z,28.9
2018-02-24T11:12:16.767Z,28.7
2018-02-24T11:13:17.078Z,28.9
2018-02-24T11:14:16.393Z,29.0
2018-02-24T11:15:16.695Z,29.8
2018-02-24T11:16:17.001Z,29.4
2018-02-24T11:17:16.309Z,29.8
2018-02-24T11:18:16.612Z,29.8
2018-02-24T11:19:16.907Z,29.9
2018-02-24T11:20:17.521Z,29.9
2018-02-24T11:21:17.246Z,29.9
2018-02-24T11:22:16.599Z,29.9
2018-02-24T11:23:16.911Z,30.4
2018-02-24T11:24:17.202Z,30.6
2018-02-24T11:25:16.508Z,29.6
2018-02-24T11:26:16.823Z,29.6
2018-02-24T11:27:17.133Z,29.4
2018-02-24T11:28:16.427Z,30.1
2018-02-24T11:29:16.736Z,29.9
2018-02-24T11:30:17.068Z,30.6
2018-02-24T11:31:17.138Z,29.9
2018-02-24T11:32:16.433Z,29.9
2018-02-24T11:33:16.749Z,29.1
2018-02-24T11:34:17.042Z,29.2
2018-02-24T11:35:16.462Z,29.4
2018-02-24T11:36:16.959Z,30.2
2018-02-24T11:37:17.262Z,30.2
2018-02-24T11:38:16.556Z,30.2
2018-02-24T11:39:16.853Z,29.6
2018-02-24T11:40:17.172Z,29.6
2018-02-24T11:41:17.198Z,31.1
2018-02-24T11:42:16.499Z,30.9
2018-02-24T11:43:16.792Z,30.8
2018-02-24T11:44:17.086Z,30.3
2018-02-24T11:45:16.404Z,30.4
2018-02-24T11:46:16.708Z,31.1
2018-02-24T11:47:16.999Z,31.1
2018-02-24T11:48:16.291Z,30.9
2018-02-24T11:49:16.600Z,31.1
2018-02-24T11:50:16.926Z,31.8
2018-02-24T11:51:17.136Z,31.6
2018-02-24T11:52:16.441Z,30.9
2018-02-24T11:53:16.740Z,31.9
2018-02-24T11:54:17.052Z,31.3
2018-02-24T11:55:16.371Z,31.2
2018-02-24T11:56:16.665Z,31.2
2018-02-24T11:57:16.960Z,31.6
2018-02-24T11:58:17.260Z,31.4
2018-02-24T11:59:16.560Z,30.8
2018-02-24T12:00:16.858Z,31.3
2018-02-24T12:01:16.903Z,31.2
2018-02-24T12:02:17.196Z,30.9
2018-02-24T12:03:16.496Z,30.7
2018-02-24T12:04:16.796Z,30.9
2018-02-24T12:05:17.264Z,31.4
2018-02-24T12:06:16.567Z,31.4
2018-02-24T12:07:16.868Z,31.6
2018-02-24T12:08:17.169Z,31.4
2018-02-24T12:09:16.481Z,31.9
2018-02-24T12:10:16.776Z,31.9
2018-02-24T12:11:16.811Z,32.0
2018-02-24T12:12:17.116Z,33.0
2018-02-24T12:13:16.416Z,32.9
2018-02-24T12:14:16.706Z,32.6
2018-02-24T12:15:17.014Z,33.0
2018-02-24T12:16:16.329Z,32.9
2018-02-24T12:17:16.628Z,33.2
2018-02-24T12:18:16.952Z,33.2
2018-02-24T12:19:17.275Z,33.2
2018-02-24T12:20:16.590Z,33.3
2018-02-24T12:21:16.617Z,33.1
2018-02-24T12:22:16.934Z,33.3
2018-02-24T12:23:17.230Z,33.3
2018-02-24T12:24:16.541Z,33.6
2018-02-24T12:25:16.845Z,33.8
2018-02-24T12:26:17.200Z,33.5
2018-02-24T12:27:16.514Z,33.6
2018-02-24T12:28:16.820Z,33.7
2018-02-24T12:29:17.118Z,33.6
2018-02-24T12:30:16.436Z,33.7
2018-02-24T12:31:16.493Z,33.7
2018-02-24T12:32:16.796Z,33.9
2018-02-24T12:33:17.099Z,33.8
2018-02-24T12:34:16.392Z,34.0
2018-02-24T12:35:16.700Z,34.8
2018-02-24T12:36:17.007Z,34.9
2018-02-24T12:37:16.313Z,35.0
2018-02-24T12:38:16.675Z,34.7
2018-02-24T12:39:16.990Z,34.5
2018-02-24T12:40:16.296Z,34.5
2018-02-24T12:41:16.328Z,34.5
2018-02-24T12:42:16.633Z,34.7
2018-02-24T12:43:16.937Z,34.6
2018-02-24T12:44:17.241Z,35.2
2018-02-24T12:45:16.557Z,35.0
2018-02-24T12:46:16.866Z,35.0
2018-02-24T12:47:17.157Z,35.0
2018-02-24T12:48:16.827Z,35.2
2018-02-24T12:49:17.132Z,35.5
2018-02-24T12:50:16.458Z,35.5
2018-02-24T12:51:16.533Z,35.5
2018-02-24T12:52:16.853Z,35.5
2018-02-24T12:53:17.152Z,35.5
2018-02-24T12:54:16.462Z,35.6
2018-02-24T12:55:16.762Z,36.4
2018-02-24T12:56:17.052Z,36.1
2018-02-24T12:57:16.351Z,36.6
2018-02-24T12:58:16.650Z,36.2
2018-02-24T12:59:16.951Z,36.0
2018-02-24T13:00:17.275Z,36.0
2018-02-24T13:01:16.289Z,36.6
2018-02-24T13:02:16.586Z,36.2
2018-02-24T13:03:16.868Z,36.2
2018-02-24T13:04:17.166Z,36.4
2018-02-24T13:05:16.544Z,36.2
2018-02-24T13:06:16.826Z,36.4
2018-02-24T13:07:17.118Z,36.0
2018-02-24T13:08:16.417Z,36.9
2018-02-24T13:09:16.735Z,36.6
2018-02-24T13:10:17.045Z,36.4
2018-02-24T13:11:17.108Z,36.0
2018-02-24T13:12:16.403Z,36.0
2018-02-24T13:13:16.691Z,35.9
2018-02-24T13:14:16.996Z,35.8
2018-02-24T13:15:16.316Z,35.8
2018-02-24T13:16:16.604Z,35.8
2018-02-24T13:17:16.933Z,36.2
2018-02-24T13:18:17.238Z,36.5